Time;durP1;ratioP1;P1;durP2;ratioP2;P2;SDS_P1;SDS_P2;PMS_P1;PMS_P2;Temp;Humidity;BMP_temperature;BMP_pressure;BME280_temperature;BME280_humidity;BME280_pressure;Samples;Min_cycle;Max_cycle;Signal;HPM_P1;HPM_P2
2024/04/09 00:00:18;;;;;;;6.03;2.20;;;;;;;;;;5382970;26;20011;-66
2024/04/09 00:02:44;;;;;;;6.18;2.67;;;;;;;;;;5379884;26;20078;-64
2024/04/09 00:05:10;;;;;;;5.80;1.98;;;;;;;;;;5375021;26;20016;-65
2024/04/09 00:07:38;;;;;;;7.45;2.28;;;;;;;;;;5382988;26;19997;-65
2024/04/09 00:10:06;;;;;;;5.75;2.10;;;;;;;;;;5354301;26;20001;-65
2024/04/09 00:12:32;;;;;;;7.72;2.35;;;;;;;;;;5375731;26;20001;-64
2024/04/09 00:14:59;;;;;;;5.70;2.10;;;;;;;;;;5376940;26;20750;-66
2024/04/09 00:17:25;;;;;;;4.35;2.00;;;;;;;;;;5377815;26;20006;-65
2024/04/09 00:19:51;;;;;;;7.05;2.22;;;;;;;;;;5382923;26;20043;-64
2024/04/09 00:22:16;;;;;;;5.78;2.15;;;;;;;;;;5377279;26;20000;-65
2024/04/09 00:24:42;;;;;;;7.88;2.30;;;;;;;;;;5377339;26;20000;-64
2024/04/09 00:27:08;;;;;;;6.97;2.17;;;;;;;;;;5364159;26;20005;-65
2024/04/09 00:29:36;;;;;;;5.72;2.05;;;;;;;;;;5348801;26;20409;-65
2024/04/09 00:32:02;;;;;;;5.70;2.30;;;;;;;;;;5380952;26;20014;-65
2024/04/09 00:34:29;;;;;;;5.78;2.13;;;;;;;;;;5386194;26;20003;-67
2024/04/09 00:36:55;;;;;;;4.95;2.00;;;;;;;;;;5379007;26;20498;-65
2024/04/09 00:39:23;;;;;;;6.88;1.90;;;;;;;;;;5380699;26;19992;-65
2024/04/09 00:41:48;;;;;;;6.03;2.00;;;;;;;;;;5368615;26;20001;-64
2024/04/09 00:44:14;;;;;;;6.55;2.10;;;;;;;;;;5380990;26;20456;-64
2024/04/09 00:46:39;;;;;;;7.15;1.75;;;;;;;;;;5379949;26;20008;-66
2024/04/09 00:49:06;;;;;;;7.47;2.03;;;;;;;;;;5368057;26;20025;-65
2024/04/09 00:51:32;;;;;;;8.52;2.17;;;;;;;;;;5371766;26;20130;-66
2024/04/09 00:53:58;;;;;;;;;;;;;;;;;;5381170;26;20008;-65
2024/04/09 00:56:23;;;;;;;4.83;1.83;;;;;;;;;;5381813;26;19925;-64
2024/04/09 00:58:49;;;;;;;5.25;1.98;;;;;;;;;;5384191;26;20400;-66
2024/04/09 01:01:16;;;;;;;6.90;1.85;;;;;;;;;;5382322;26;20723;-68
2024/04/09 01:03:42;;;;;;;6.28;2.10;;;;;;;;;;5384730;26;20073;-64
2024/04/09 01:06:09;;;;;;;5.50;2.20;;;;;;;;;;5375724;26;20004;-65
2024/04/09 01:08:34;;;;;;;7.72;2.15;;;;;;;;;;5382921;26;20004;-65
2024/04/09 01:11:00;;;;;;;7.47;1.90;;;;;;;;;;5371843;26;20073;-65
2024/04/09 01:13:25;;;;;;;4.43;1.75;;;;;;;;;;5380733;26;20007;-64
2024/04/09 01:15:51;;;;;;;6.78;1.70;;;;;;;;;;5392912;26;20213;-64
2024/04/09 01:18:16;;;;;;;5.00;2.00;;;;;;;;;;5383903;26;20062;-64
2024/04/09 01:20:42;;;;;;;6.13;1.90;;;;;;;;;;5373019;26;20004;-65
2024/04/09 01:23:07;;;;;;;3.92;1.73;;;;;;;;;;5384566;26;20003;-66
2024/04/09 01:25:33;;;;;;;6.03;2.05;;;;;;;;;;5382910;26;20008;-65
2024/04/09 01:27:59;;;;;;;4.20;1.63;;;;;;;;;;5404944;26;20073;-64
2024/04/09 01:30:24;;;;;;;5.38;1.90;;;;;;;;;;5378656;26;20004;-64
2024/04/09 01:32:51;;;;;;;5.15;2.20;;;;;;;;;;5376801;26;19996;-65
2024/04/09 01:35:18;;;;;;;10.45;2.00;;;;;;;;;;5378733;26;19996;-64
2024/04/09 01:37:43;;;;;;;9.43;2.20;;;;;;;;;;5379566;26;20410;-64
2024/04/09 01:40:10;;;;;;;3.83;1.80;;;;;;;;;;5390958;26;20005;-65
2024/04/09 01:42:36;;;;;;;7.10;2.08;;;;;;;;;;5379762;26;19996;-65
2024/04/09 01:45:01;;;;;;;5.00;2.05;;;;;;;;;;5379691;26;20494;-65
2024/04/09 01:47:27;;;;;;;6.75;1.80;;;;;;;;;;5380190;26;19988;-66
2024/04/09 01:49:53;;;;;;;;;;;;;;;;;;5379135;26;20023;-64
2024/04/09 01:52:19;;;;;;;7.03;1.70;;;;;;;;;;5379566;26;20376;-65
2024/04/09 01:54:45;;;;;;;5.90;1.50;;;;;;;;;;5376408;26;20425;-65
2024/04/09 01:57:11;;;;;;;6.70;1.83;;;;;;;;;;5382829;26;20000;-65
2024/04/09 01:59:36;;;;;;;4.20;1.73;;;;;;;;;;5363453;26;20019;-64
2024/04/09 02:02:02;;;;;;;7.00;1.90;;;;;;;;;;5375305;26;20008;-64
2024/04/09 02:04:27;;;;;;;7.28;1.90;;;;;;;;;;5364970;26;20019;-64
2024/04/09 02:06:53;;;;;;;5.28;1.70;;;;;;;;;;5376528;26;20038;-64
2024/04/09 02:09:19;;;;;;;8.35;1.90;;;;;;;;;;5387619;26;20050;-66
2024/04/09 02:11:44;;;;;;;5.75;1.88;;;;;;;;;;5371278;26;20449;-66
2024/04/09 02:14:10;;;;;;;6.13;1.77;;;;;;;;;;5379259;26;20018;-65
2024/04/09 02:16:36;;;;;;;5.82;1.90;;;;;;;;;;5369991;26;20008;-66
2024/04/09 02:19:02;;;;;;;3.90;1.60;;;;;;;;;;5379596;26;20098;-64
2024/04/09 02:21:27;;;;;;;4.80;1.80;;;;;;;;;;5378276;26;20008;-64
2024/04/09 02:23:54;;;;;;;5.57;1.80;;;;;;;;;;5377281;26;20001;-66
2024/04/09 02:26:21;;;;;;;4.40;1.80;;;;;;;;;;5382525;26;20080;-65
2024/04/09 02:28:47;;;;;;;5.63;2.10;;;;;;;;;;5371350;26;20528;-64
2024/04/09 02:31:12;;;;;;;5.38;2.00;;;;;;;;;;5344470;26;20025;-64
2024/04/09 02:33:38;;;;;;;7.30;1.88;;;;;;;;;;5372677;26;20297;-65
2024/04/09 02:36:11;;;;;;;6.72;2.30;;;;;;;;;;5367440;26;19997;-65
2024/04/09 02:38:37;;;;;;;4.50;1.75;;;;;;;;;;5365983;26;20000;-65
2024/04/09 02:41:03;;;;;;;3.85;1.95;;;;;;;;;;5376398;26;20034;-65
2024/04/09 02:43:28;;;;;;;4.88;2.08;;;;;;;;;;5360195;26;20015;-66
2024/04/09 02:45:54;;;;;;;4.85;1.60;;;;;;;;;;5350234;26;20010;-66
2024/04/09 02:48:20;;;;;;;5.95;1.77;;;;;;;;;;5374145;26;20000;-67
2024/04/09 02:50:58;;;;;;;10.60;2.10;;;;;;;;;;5358049;26;20017;-64
2024/04/09 02:53:23;;;;;;;;;;;;;;;;;;5375498;26;20003;-64
2024/04/09 02:56:01;;;;;;;5.40;1.60;;;;;;;;;;5378648;26;19937;-66
2024/04/09 02:58:27;;;;;;;6.38;1.80;;;;;;;;;;5381604;26;20389;-64
2024/04/09 03:00:53;;;;;;;5.10;2.00;;;;;;;;;;5372169;26;20376;-65
2024/04/09 03:03:18;;;;;;;7.45;2.00;;;;;;;;;;5378627;26;20061;-65
2024/04/09 03:05:44;;;;;;;6.00;1.75;;;;;;;;;;5378575;26;20004;-66
2024/04/09 03:08:10;;;;;;;5.00;2.00;;;;;;;;;;5371582;26;20011;-66
2024/04/09 03:10:36;;;;;;;4.45;1.88;;;;;;;;;;5378457;26;20352;-65
2024/04/09 03:13:02;;;;;;;5.68;1.90;;;;;;;;;;5377004;26;20065;-66
2024/04/09 03:15:29;;;;;;;3.72;1.60;;;;;;;;;;5378759;26;20005;-64
2024/04/09 03:17:54;;;;;;;5.32;1.83;;;;;;;;;;5351303;26;20018;-65
2024/04/09 03:20:20;;;;;;;5.05;1.90;;;;;;;;;;5345387;26;20437;-65
2024/04/09 03:22:45;;;;;;;6.40;1.80;;;;;;;;;;5372788;26;20757;-64
2024/04/09 03:25:11;;;;;;;7.82;2.10;;;;;;;;;;5368345;26;20474;-66
2024/04/09 03:27:36;;;;;;;5.13;1.90;;;;;;;;;;5367228;26;20008;-67
2024/04/09 03:30:05;;;;;;;5.20;1.88;;;;;;;;;;5373920;26;20043;-65
2024/04/09 03:32:31;;;;;;;7.47;2.40;;;;;;;;;;5378728;26;20011;-67
2024/04/09 03:34:56;;;;;;;5.53;1.80;;;;;;;;;;5371171;26;19993;-65
2024/04/09 03:37:22;;;;;;;5.55;1.90;;;;;;;;;;5402502;26;20004;-67
2024/04/09 03:39:48;;;;;;;5.95;2.28;;;;;;;;;;5397862;26;20054;-65
2024/04/09 03:42:13;;;;;;;5.53;1.98;;;;;;;;;;5389285;26;20001;-67
2024/04/09 03:44:40;;;;;;;5.40;2.00;;;;;;;;;;5395891;26;20000;-66
2024/04/09 03:47:05;;;;;;;5.20;2.55;;;;;;;;;;5378646;26;20009;-67
2024/04/09 03:49:33;;;;;;;6.05;1.90;;;;;;;;;;5368207;26;20329;-65
2024/04/09 03:51:59;;;;;;;4.22;1.95;;;;;;;;;;5376697;26;19996;-67
2024/04/09 03:54:24;;;;;;;6.43;2.08;;;;;;;;;;5376618;26;19996;-66
2024/04/09 03:56:50;;;;;;;5.70;1.90;;;;;;;;;;5378652;26;20012;-65
2024/04/09 03:59:15;;;;;;;7.13;1.95;;;;;;;;;;5369949;26;20005;-65
2024/04/09 04:01:41;;;;;;;5.07;2.10;;;;;;;;;;5371234;26;20012;-65
2024/04/09 04:04:06;;;;;;;5.97;2.20;;;;;;;;;;5359485;26;20086;-65
2024/04/09 04:06:32;;;;;;;6.00;1.70;;;;;;;;;;5378898;26;20015;-66
2024/04/09 04:08:58;;;;;;;5.97;1.80;;;;;;;;;;5371342;26;20417;-64
2024/04/09 04:11:23;;;;;;;4.40;1.92;;;;;;;;;;5379461;26;20398;-65
2024/04/09 04:13:49;;;;;;;6.20;2.30;;;;;;;;;;5369569;26;20008;-65
2024/04/09 04:16:15;;;;;;;5.28;2.10;;;;;;;;;;5378986;26;20077;-67
2024/04/09 04:18:42;;;;;;;7.15;2.05;;;;;;;;;;5370064;26;19997;-65
2024/04/09 04:21:08;;;;;;;7.85;1.90;;;;;;;;;;5365946;26;20008;-64
2024/04/09 04:23:34;;;;;;;6.43;2.13;;;;;;;;;;5370746;26;20441;-66
2024/04/09 04:26:01;;;;;;;5.07;1.98;;;;;;;;;;5370202;26;20001;-66
2024/04/09 04:28:27;;;;;;;5.03;1.75;;;;;;;;;;5367167;26;20583;-64
2024/04/09 04:30:53;;;;;;;6.45;2.15;;;;;;;;;;5378002;26;20050;-65
2024/04/09 04:33:18;;;;;;;5.60;2.00;;;;;;;;;;5366345;26;20008;-65
2024/04/09 04:35:44;;;;;;;6.20;2.25;;;;;;;;;;5375397;26;20000;-64
2024/04/09 04:38:09;;;;;;;7.18;2.10;;;;;;;;;;5369644;26;20008;-66
2024/04/09 04:40:35;;;;;;;5.32;2.00;;;;;;;;;;5375704;26;20065;-66
2024/04/09 04:43:00;;;;;;;9.07;2.00;;;;;;;;;;5377516;26;20001;-64
2024/04/09 04:45:26;;;;;;;4.68;2.03;;;;;;;;;;5365545;26;20004;-65
2024/04/09 04:47:51;;;;;;;6.07;2.08;;;;;;;;;;5373803;26;20103;-65
2024/04/09 04:50:17;;;;;;;5.50;1.92;;;;;;;;;;5371373;26;20011;-65
2024/04/09 04:52:42;;;;;;;5.88;2.10;;;;;;;;;;5363574;26;20436;-64
2024/04/09 04:55:09;;;;;;;4.78;1.92;;;;;;;;;;5372193;26;20478;-64
2024/04/09 04:57:34;;;;;;;6.13;2.25;;;;;;;;;;5376309;26;20073;-64
2024/04/09 05:00:00;;;;;;;8.60;2.45;;;;;;;;;;5368346;26;20004;-66
2024/04/09 05:02:27;;;;;;;5.18;2.08;;;;;;;;;;5361952;26;20044;-65
2024/04/09 05:04:54;;;;;;;8.27;2.35;;;;;;;;;;5347738;26;20033;-65
2024/04/09 05:07:20;;;;;;;4.22;2.00;;;;;;;;;;5369825;26;20004;-66
2024/04/09 05:09:46;;;;;;;4.93;1.83;;;;;;;;;;5363164;26;20443;-65
2024/04/09 05:12:11;;;;;;;6.95;2.28;;;;;;;;;;5369166;26;20004;-65
2024/04/09 05:14:37;;;;;;;5.78;2.05;;;;;;;;;;5382365;26;20010;-66
2024/04/09 05:17:02;;;;;;;7.10;2.60;;;;;;;;;;5370243;26;20008;-65
2024/04/09 05:19:28;;;;;;;8.02;2.25;;;;;;;;;;5370886;26;20020;-66
2024/04/09 05:21:54;;;;;;;4.28;1.90;;;;;;;;;;5380240;26;20000;-66
2024/04/09 05:24:23;;;;;;;6.88;2.03;;;;;;;;;;5380589;26;20000;-65
2024/04/09 05:26:48;;;;;;;5.07;1.90;;;;;;;;;;5380556;26;20006;-65
2024/04/09 05:29:14;;;;;;;4.68;2.00;;;;;;;;;;5386476;26;20004;-65
2024/04/09 05:31:39;;;;;;;6.03;2.45;;;;;;;;;;5390343;26;20012;-65
2024/04/09 05:34:05;;;;;;;7.00;2.22;;;;;;;;;;5365048;26;20003;-64
2024/04/09 05:36:32;;;;;;;7.13;2.75;;;;;;;;;;5348259;26;20012;-64
2024/04/09 05:38:59;;;;;;;7.07;2.40;;;;;;;;;;5348212;26;20008;-65
2024/04/09 05:41:25;;;;;;;7.80;2.40;;;;;;;;;;5365902;26;19996;-66
2024/04/09 05:43:50;;;;;;;9.90;2.50;;;;;;;;;;5348199;26;20062;-65
2024/04/09 05:46:16;;;;;;;7.03;2.35;;;;;;;;;;5375788;26;20444;-65
2024/04/09 05:48:41;;;;;;;6.10;2.50;;;;;;;;;;5366987;26;20012;-64
2024/04/09 05:51:07;;;;;;;6.10;2.15;;;;;;;;;;5356421;26;20077;-66
2024/04/09 05:53:32;;;;;;;6.82;2.30;;;;;;;;;;5348714;26;20339;-67
2024/04/09 05:55:58;;;;;;;11.90;2.88;;;;;;;;;;5367642;26;20012;-66
2024/04/09 05:58:23;;;;;;;8.18;3.35;;;;;;;;;;5366933;26;20074;-65
2024/04/09 06:00:51;;;;;;;7.63;2.78;;;;;;;;;;5379262;26;20000;-65
2024/04/09 06:03:16;;;;;;;7.47;3.28;;;;;;;;;;5360951;26;20001;-65
2024/04/09 06:05:42;;;;;;;8.23;2.60;;;;;;;;;;5352945;26;20005;-66
2024/04/09 06:08:07;;;;;;;5.88;2.60;;;;;;;;;;5345441;26;20395;-68
2024/04/09 06:10:33;;;;;;;7.07;2.22;;;;;;;;;;5361989;26;20441;-66
2024/04/09 06:12:58;;;;;;;4.45;1.98;;;;;;;;;;5359582;26;19997;-66
2024/04/09 06:15:24;;;;;;;5.32;2.00;;;;;;;;;;5371536;26;20013;-66
2024/04/09 06:17:49;;;;;;;9.00;2.25;;;;;;;;;;5379447;26;20061;-65
2024/04/09 06:20:15;;;;;;;6.80;2.40;;;;;;;;;;5350600;26;20572;-65
2024/04/09 06:22:41;;;;;;;7.75;2.33;;;;;;;;;;5344564;26;19993;-65
2024/04/09 06:25:06;;;;;;;8.43;2.20;;;;;;;;;;5344045;26;20534;-65
2024/04/09 06:27:32;;;;;;;7.75;2.10;;;;;;;;;;5344200;26;20001;-66
2024/04/09 06:29:57;;;;;;;5.82;2.28;;;;;;;;;;5371605;26;20015;-65
2024/04/09 06:32:23;;;;;;;5.75;1.90;;;;;;;;;;5373792;26;20333;-66
2024/04/09 06:34:49;;;;;;;5.07;2.17;;;;;;;;;;5378545;26;20370;-65
2024/04/09 06:37:14;;;;;;;8.20;2.22;;;;;;;;;;5378588;26;19997;-65
2024/04/09 06:39:40;;;;;;;8.95;2.03;;;;;;;;;;5378750;26;20528;-64
2024/04/09 06:42:05;;;;;;;6.65;2.47;;;;;;;;;;5363949;26;20435;-65
2024/04/09 06:44:31;;;;;;;4.32;2.08;;;;;;;;;;5374691;26;20072;-67
2024/04/09 06:46:57;;;;;;;7.07;2.10;;;;;;;;;;5343313;26;20445;-65
2024/04/09 06:49:23;;;;;;;7.75;1.92;;;;;;;;;;5351807;26;20000;-65
2024/04/09 06:51:48;;;;;;;8.52;2.15;;;;;;;;;;5379350;26;20000;-68
2024/04/09 06:54:14;;;;;;;5.85;2.10;;;;;;;;;;5379471;26;20008;-66
2024/04/09 06:56:39;;;;;;;7.38;1.90;;;;;;;;;;5377678;26;20050;-65
2024/04/09 06:59:05;;;;;;;5.80;2.13;;;;;;;;;;5367065;26;20001;-67
2024/04/09 07:01:30;;;;;;;6.53;2.10;;;;;;;;;;5342650;26;20004;-66
2024/04/09 07:03:57;;;;;;;6.38;2.10;;;;;;;;;;5343945;26;20086;-64
2024/04/09 07:06:22;;;;;;;6.57;2.00;;;;;;;;;;5343439;26;20024;-65
2024/04/09 07:08:49;;;;;;;8.88;2.20;;;;;;;;;;5346192;26;20013;-66
2024/04/09 07:11:15;;;;;;;6.88;2.00;;;;;;;;;;5384660;26;20007;-67
2024/04/09 07:13:40;;;;;;;5.25;2.10;;;;;;;;;;5343767;26;20005;-66
2024/04/09 07:16:06;;;;;;;5.88;1.80;;;;;;;;;;5343577;26;20043;-65
2024/04/09 07:18:32;;;;;;;6.35;2.10;;;;;;;;;;5344347;26;20001;-65
2024/04/09 07:20:59;;;;;;;6.80;2.10;;;;;;;;;;5344580;26;20412;-66
2024/04/09 07:23:25;;;;;;;6.20;1.85;;;;;;;;;;5367732;26;20030;-67
2024/04/09 07:25:51;;;;;;;6.78;2.00;;;;;;;;;;5370883;26;20012;-64
2024/04/09 07:28:17;;;;;;;5.07;1.73;;;;;;;;;;5344841;26;20005;-66
2024/04/09 07:30:43;;;;;;;7.90;1.90;;;;;;;;;;5344944;26;20085;-65
2024/04/09 07:33:08;;;;;;;9.27;1.88;;;;;;;;;;5344632;26;20036;-64
2024/04/09 07:35:36;;;;;;;10.73;1.70;;;;;;;;;;5361701;26;20081;-65
2024/04/09 07:38:02;;;;;;;13.93;2.40;;;;;;;;;;5380627;26;20019;-65
2024/04/09 07:40:27;;;;;;;6.25;1.83;;;;;;;;;;5382197;26;20004;-68
2024/04/09 07:42:53;;;;;;;13.70;2.20;;;;;;;;;;5387723;26;20004;-65
2024/04/09 07:45:19;;;;;;;9.85;2.05;;;;;;;;;;5386985;26;20050;-65
2024/04/09 07:47:49;;;;;;;7.50;2.10;;;;;;;;;;5386061;26;20458;-65
2024/04/09 07:50:14;;;;;;;6.35;1.77;;;;;;;;;;5379756;26;19997;-65
2024/04/09 07:52:40;;;;;;;8.02;2.30;;;;;;;;;;5378976;26;20007;-66
2024/04/09 07:55:07;;;;;;;6.50;1.95;;;;;;;;;;5378658;26;20038;-65
2024/04/09 07:57:33;;;;;;;5.88;1.80;;;;;;;;;;5378981;26;19998;-64
2024/04/09 07:59:59;;;;;;;7.25;2.30;;;;;;;;;;5379323;26;20032;-65
2024/04/09 08:02:25;;;;;;;4.90;1.58;;;;;;;;;;5379482;26;20061;-65
2024/04/09 08:04:50;;;;;;;7.20;1.80;;;;;;;;;;5387235;26;20011;-66
2024/04/09 08:07:16;;;;;;;9.10;1.80;;;;;;;;;;5363331;26;20003;-68
2024/04/09 08:09:41;;;;;;;6.63;2.05;;;;;;;;;;5371492;26;20019;-66
2024/04/09 08:12:07;;;;;;;7.20;2.05;;;;;;;;;;5379396;26;20007;-66
2024/04/09 08:14:32;;;;;;;6.93;2.00;;;;;;;;;;5345017;26;20020;-64
2024/04/09 08:16:58;;;;;;;5.80;1.88;;;;;;;;;;5370343;26;20683;-66
2024/04/09 08:19:23;;;;;;;5.28;2.10;;;;;;;;;;5388420;26;20517;-65
2024/04/09 08:21:49;;;;;;;10.75;2.40;;;;;;;;;;5355815;26;20514;-67
2024/04/09 08:24:15;;;;;;;5.07;1.73;;;;;;;;;;5343049;26;20482;-65
2024/04/09 08:26:41;;;;;;;4.95;1.95;;;;;;;;;;5343243;26;20128;-66
2024/04/09 08:29:08;;;;;;;6.15;1.90;;;;;;;;;;5372698;26;20004;-67
2024/04/09 08:31:33;;;;;;;6.55;1.98;;;;;;;;;;5345981;26;20457;-68
2024/04/09 08:33:59;;;;;;;7.65;1.60;;;;;;;;;;5344324;26;20001;-65
2024/04/09 08:36:25;;;;;;;6.03;1.80;;;;;;;;;;5345095;26;20376;-67
2024/04/09 08:38:54;;;;;;;8.57;1.95;;;;;;;;;;5346183;26;20043;-65
2024/04/09 08:41:20;;;;;;;5.82;1.75;;;;;;;;;;5363556;26;20439;-66
2024/04/09 08:43:47;;;;;;;4.78;1.75;;;;;;;;;;5371771;26;20074;-64
2024/04/09 08:46:13;;;;;;;4.85;1.90;;;;;;;;;;5350681;26;20547;-66
2024/04/09 08:48:39;;;;;;;5.07;2.15;;;;;;;;;;5383123;26;20069;-66
2024/04/09 08:51:05;;;;;;;6.78;1.70;;;;;;;;;;5385900;26;20012;-66
2024/04/09 08:53:32;;;;;;;6.32;2.10;;;;;;;;;;5378941;26;20410;-66
2024/04/09 08:55:57;;;;;;;8.90;2.17;;;;;;;;;;5393062;26;20018;-66
2024/04/09 08:58:23;;;;;;;6.18;1.90;;;;;;;;;;5385910;26;20008;-66
2024/04/09 09:00:49;;;;;;;5.28;1.75;;;;;;;;;;5375892;26;20046;-67
2024/04/09 09:03:14;;;;;;;9.27;2.20;;;;;;;;;;5380456;26;20015;-66
2024/04/09 09:05:41;;;;;;;6.35;1.90;;;;;;;;;;5380704;26;20001;-66
2024/04/09 09:08:06;;;;;;;7.55;2.15;;;;;;;;;;5382851;26;19996;-65
2024/04/09 09:10:33;;;;;;;9.57;1.90;;;;;;;;;;5352440;26;20078;-65
2024/04/09 09:13:02;;;;;;;5.50;1.92;;;;;;;;;;5345427;26;20160;-65
2024/04/09 09:15:28;;;;;;;9.40;2.05;;;;;;;;;;5389251;26;20000;-66
2024/04/09 09:17:53;;;;;;;7.20;2.17;;;;;;;;;;5356775;26;20008;-69
2024/04/09 09:20:19;;;;;;;9.98;2.05;;;;;;;;;;5345662;26;20437;-65
2024/04/09 09:22:46;;;;;;;11.10;2.45;;;;;;;;;;5345685;26;20716;-65
2024/04/09 09:25:15;;;;;;;11.35;2.20;;;;;;;;;;5345268;26;20071;-67
2024/04/09 09:27:43;;;;;;;6.57;1.90;;;;;;;;;;5346022;26;20005;-65
2024/04/09 09:30:08;;;;;;;5.47;2.15;;;;;;;;;;5364651;26;20018;-65
2024/04/09 09:32:39;;;;;;;4.63;2.10;;;;;;;;;;5376484;26;20000;-65
2024/04/09 09:35:09;;;;;;;5.38;2.08;;;;;;;;;;5345165;26;19997;-65
2024/04/09 09:37:34;;;;;;;7.07;1.92;;;;;;;;;;5345423;26;20079;-65
2024/04/09 09:40:01;;;;;;;5.72;2.40;;;;;;;;;;5383771;26;20012;-66
2024/04/09 09:42:27;;;;;;;6.32;2.13;;;;;;;;;;5348794;26;20005;-65
2024/04/09 09:44:52;;;;;;;;;;;;;;;;;;5346571;26;20011;-66
2024/04/09 09:47:18;;;;;;;6.23;2.30;;;;;;;;;;5390109;26;19933;-65
2024/04/09 09:49:45;;;;;;;4.63;1.98;;;;;;;;;;5382061;26;20424;-65
2024/04/09 09:52:10;;;;;;;10.38;2.20;;;;;;;;;;5353429;26;20040;-65
2024/04/09 09:54:36;;;;;;;4.88;1.90;;;;;;;;;;5344725;26;20063;-67
2024/04/09 09:57:01;;;;;;;11.05;2.00;;;;;;;;;;5344300;26;20005;-66
2024/04/09 09:59:31;;;;;;;6.88;2.40;;;;;;;;;;5342402;26;20009;-66
2024/04/09 10:01:57;;;;;;;7.50;2.00;;;;;;;;;;5349902;26;20449;-66
2024/04/09 10:04:25;;;;;;;8.13;2.05;;;;;;;;;;5383119;26;20015;-67
2024/04/09 10:06:56;;;;;;;7.28;2.10;;;;;;;;;;5344452;26;20453;-67
2024/04/09 10:09:40;;;;;;;6.25;2.13;;;;;;;;;;5344943;26;20019;-64
2024/04/09 10:12:07;;;;;;;7.13;2.72;;;;;;;;;;5345353;26;20019;-65
2024/04/09 10:14:39;;;;;;;6.68;2.20;;;;;;;;;;5344738;26;20013;-67
2024/04/09 10:17:13;;;;;;;7.50;2.33;;;;;;;;;;5380323;26;20519;-68
2024/04/09 10:19:40;;;;;;;9.80;2.20;;;;;;;;;;5388271;26;20004;-67
2024/04/09 10:22:06;;;;;;;8.10;2.03;;;;;;;;;;5388659;26;20011;-64
2024/04/09 10:24:34;;;;;;;7.15;1.90;;;;;;;;;;5346892;26;20013;-65
2024/04/09 10:27:00;;;;;;;5.50;2.13;;;;;;;;;;5344423;26;20015;-67
2024/04/09 10:29:28;;;;;;;6.75;1.98;;;;;;;;;;5344724;26;19993;-65
2024/04/09 10:31:54;;;;;;;9.25;2.53;;;;;;;;;;5361957;26;20033;-64
2024/04/09 10:34:24;;;;;;;6.07;2.10;;;;;;;;;;5383448;26;20012;-66
2024/04/09 10:36:50;;;;;;;8.82;2.33;;;;;;;;;;5345148;26;19997;-64
2024/04/09 10:39:15;;;;;;;;;;;;;;;;;;5383856;26;20001;-66
2024/04/09 10:41:41;;;;;;;8.50;2.13;;;;;;;;;;5344764;26;19926;-67
2024/04/09 10:44:09;;;;;;;9.25;2.08;;;;;;;;;;5354890;26;20011;-65
2024/04/09 10:46:34;;;;;;;8.60;2.38;;;;;;;;;;5379116;26;20039;-66
2024/04/09 10:49:00;;;;;;;7.63;2.20;;;;;;;;;;5374489;26;20010;-65
2024/04/09 10:51:25;;;;;;;6.25;2.30;;;;;;;;;;5363033;26;19997;-66
2024/04/09 10:54:00;;;;;;;5.68;2.13;;;;;;;;;;5378904;26;20000;-65
2024/04/09 10:56:27;;;;;;;11.00;2.10;;;;;;;;;;5378957;26;20015;-66
2024/04/09 10:58:53;;;;;;;7.03;2.33;;;;;;;;;;5378812;26;20000;-65
2024/04/09 11:01:18;;;;;;;6.13;2.20;;;;;;;;;;5379813;26;20509;-65
2024/04/09 11:03:44;;;;;;;5.88;2.08;;;;;;;;;;5366971;26;20011;-64
2024/04/09 11:06:14;;;;;;;10.18;2.20;;;;;;;;;;5380747;26;20476;-66
2024/04/09 11:08:39;;;;;;;10.75;2.60;;;;;;;;;;5381208;26;19996;-66
2024/04/09 11:11:05;;;;;;;6.50;2.25;;;;;;;;;;5379928;26;20660;-66
2024/04/09 11:13:31;;;;;;;9.02;2.63;;;;;;;;;;5384043;26;20008;-66
2024/04/09 11:15:57;;;;;;;9.18;2.30;;;;;;;;;;5374614;26;19993;-66
2024/04/09 11:18:23;;;;;;;8.32;3.13;;;;;;;;;;5378166;26;20076;-65
2024/04/09 11:20:52;;;;;;;10.38;2.78;;;;;;;;;;5379628;26;20011;-64
2024/04/09 11:23:19;;;;;;;9.25;2.30;;;;;;;;;;5378260;26;20530;-66
2024/04/09 11:25:45;;;;;;;6.60;1.98;;;;;;;;;;5371992;26;20003;-65
2024/04/09 11:28:13;;;;;;;8.10;2.03;;;;;;;;;;5370397;26;20413;-67
2024/04/09 11:30:46;;;;;;;11.20;2.47;;;;;;;;;;5378044;26;20012;-67
2024/04/09 11:33:12;;;;;;;7.25;2.40;;;;;;;;;;5370641;26;19998;-66
2024/04/09 11:35:38;;;;;;;8.43;2.13;;;;;;;;;;5375727;26;20173;-65
2024/04/09 11:38:03;;;;;;;9.48;2.50;;;;;;;;;;5378028;26;20642;-65
2024/04/09 11:40:29;;;;;;;8.55;2.20;;;;;;;;;;5362577;26;20078;-66
2024/04/09 11:42:54;;;;;;;;;;;;;;;;;;5377146;26;19993;-64
2024/04/09 11:45:24;;;;;;;8.37;2.33;;;;;;;;;;5370904;26;19925;-67
2024/04/09 11:47:50;;;;;;;9.45;2.30;;;;;;;;;;5378414;26;20342;-65
2024/04/09 11:50:16;;;;;;;8.40;2.40;;;;;;;;;;5374859;26;20008;-65
2024/04/09 11:52:41;;;;;;;;;;;;;;;;;;5366338;26;20036;-65
2024/04/09 11:55:08;;;;;;;10.27;2.50;;;;;;;;;;5372684;26;19946;-68
2024/04/09 11:57:34;;;;;;;7.78;2.22;;;;;;;;;;5392106;26;20400;-68
2024/04/09 11:59:59;;;;;;;;;;;;;;;;;;5371927;26;20008;-65
2024/04/09 12:02:24;;;;;;;8.77;2.53;;;;;;;;;;5379736;26;19933;-67
2024/04/09 12:04:50;;;;;;;;;;;;;;;;;;5373085;26;20319;-65
2024/04/09 12:07:15;;;;;;;11.40;2.40;;;;;;;;;;5371900;26;19933;-66
2024/04/09 12:09:41;;;;;;;9.73;2.55;;;;;;;;;;5380947;26;20319;-67
2024/04/09 12:12:08;;;;;;;;;;;;;;;;;;5389385;26;20004;-65
2024/04/09 12:14:34;;;;;;;10.10;3.00;;;;;;;;;;5392912;26;19932;-72
2024/04/09 12:17:00;;;;;;;12.70;2.95;;;;;;;;;;5383907;26;20016;-66
2024/04/09 12:19:25;;;;;;;;;;;;;;;;;;5370061;26;20529;-65
2024/04/09 12:21:51;;;;;;;14.80;3.47;;;;;;;;;;5393961;26;20350;-68
2024/04/09 12:24:16;;;;;;;;;;;;;;;;;;5377707;26;20340;-70
2024/04/09 12:26:42;;;;;;;17.10;3.07;;;;;;;;;;5371936;26;19937;-65
2024/04/09 12:29:07;;;;;;;;;;;;;;;;;;5381262;26;20319;-66
2024/04/09 12:31:32;;;;;;;16.47;3.97;;;;;;;;;;5375710;26;20310;-65
2024/04/09 12:33:58;;;;;;;;;;;;;;;;;;5371336;26;20367;-65
2024/04/09 12:36:23;;;;;;;25.03;4.00;;;;;;;;;;5373028;26;20245;-68
2024/04/09 12:38:48;;;;;;;;;;;;;;;;;;5363478;26;20371;-67
2024/04/09 12:41:14;;;;;;;21.27;3.90;;;;;;;;;;5357027;26;19925;-66
2024/04/09 12:43:39;;;;;;;;;;;;;;;;;;5362463;26;20390;-66
2024/04/09 12:46:05;;;;;;;17.53;3.60;;;;;;;;;;5380158;26;20327;-66
2024/04/09 12:48:32;;;;;;;;;;;;;;;;;;5381430;26;20331;-65
2024/04/09 12:50:57;;;;;;;19.33;4.20;;;;;;;;;;5379834;26;20037;-66
2024/04/09 12:53:23;;;;;;;21.90;4.03;;;;;;;;;;5377352;26;20076;-66
2024/04/09 12:55:49;;;;;;;;;;;;;;;;;;5379467;26;20007;-65
2024/04/09 12:58:16;;;;;;;20.80;3.90;;;;;;;;;;5380819;26;20049;-65
2024/04/09 13:00:41;;;;;;;21.90;3.60;;;;;;;;;;5370880;26;20347;-65
2024/04/09 13:03:08;;;;;;;;;;;;;;;;;;5369177;26;20001;-66
2024/04/09 13:05:34;;;;;;;20.70;3.60;;;;;;;;;;5358387;26;20167;-66
2024/04/09 13:07:59;;;;;;;21.08;3.38;;;;;;;;;;5377121;26;20518;-64
2024/04/09 13:10:25;;;;;;;24.83;4.30;;;;;;;;;;5364450;26;20008;-64
2024/04/09 13:12:50;;;;;;;;;;;;;;;;;;5378004;26;20016;-65
2024/04/09 13:15:16;;;;;;;24.97;3.73;;;;;;;;;;5366240;26;19933;-67
2024/04/09 13:17:42;;;;;;;20.33;3.40;;;;;;;;;;5367433;26;20331;-64
2024/04/09 13:20:08;;;;;;;24.42;3.88;;;;;;;;;;5376496;26;19997;-67
2024/04/09 13:22:33;;;;;;;;;;;;;;;;;;5383472;26;19992;-70
2024/04/09 13:24:59;;;;;;;24.07;3.53;;;;;;;;;;5374084;26;19932;-66
2024/04/09 13:27:24;;;;;;;22.58;3.72;;;;;;;;;;5372306;26;20342;-66
2024/04/09 13:29:49;;;;;;;;;;;;;;;;;;5382378;26;20077;-65
2024/04/09 13:32:18;;;;;;;22.35;4.55;;;;;;;;;;5382222;26;19926;-65
2024/04/09 13:34:44;;;;;;;20.25;3.55;;;;;;;;;;5381677;26;20010;-65
2024/04/09 13:37:09;;;;;;;23.02;2.97;;;;;;;;;;5384616;26;19996;-65
2024/04/09 13:39:35;;;;;;;;;;;;;;;;;;5384850;26;20012;-64
2024/04/09 13:42:00;;;;;;;22.92;3.70;;;;;;;;;;5378576;26;19980;-66
2024/04/09 13:44:26;;;;;;;22.42;3.40;;;;;;;;;;5375468;26;20069;-66
2024/04/09 13:46:52;;;;;;;19.80;2.92;;;;;;;;;;5379417;26;19996;-65
2024/04/09 13:49:17;;;;;;;;;;;;;;;;;;5380076;26;20000;-67
2024/04/09 13:51:42;;;;;;;25.35;3.28;;;;;;;;;;5379351;26;19929;-66
2024/04/09 13:54:10;;;;;;;22.70;4.10;;;;;;;;;;5368076;26;20008;-65
2024/04/09 13:56:36;;;;;;;21.48;3.28;;;;;;;;;;5377884;26;20019;-66
2024/04/09 13:59:01;;;;;;;21.75;3.83;;;;;;;;;;5379421;26;20356;-65
2024/04/09 14:01:26;;;;;;;;;;;;;;;;;;5377434;26;20403;-65
2024/04/09 14:03:52;;;;;;;18.57;3.47;;;;;;;;;;5380379;26;20329;-68
2024/04/09 14:06:18;;;;;;;25.77;4.20;;;;;;;;;;5378557;26;20287;-70
2024/04/09 14:08:43;;;;;;;21.27;3.42;;;;;;;;;;5379405;26;20007;-66
2024/04/09 14:11:09;;;;;;;23.60;3.35;;;;;;;;;;5379436;26;20081;-66
2024/04/09 14:13:34;;;;;;;;;;;;;;;;;;5363604;26;20046;-67
2024/04/09 14:16:00;;;;;;;21.53;4.00;;;;;;;;;;5378358;26;19932;-66
2024/04/09 14:18:30;;;;;;;23.20;3.83;;;;;;;;;;5373416;26;20371;-66
2024/04/09 14:20:56;;;;;;;24.20;3.38;;;;;;;;;;5379008;26;20008;-66
2024/04/09 14:23:22;;;;;;;21.83;3.85;;;;;;;;;;5378702;26;20329;-66
2024/04/09 14:25:48;;;;;;;19.27;3.50;;;;;;;;;;5379391;26;20011;-67
2024/04/09 14:28:14;;;;;;;22.48;4.28;;;;;;;;;;5370486;26;20388;-69
2024/04/09 14:30:42;;;;;;;24.85;3.47;;;;;;;;;;5380196;26;20065;-66
2024/04/09 14:33:08;;;;;;;19.52;3.53;;;;;;;;;;5377860;26;20468;-67
2024/04/09 14:35:33;;;;;;;29.73;4.85;;;;;;;;;;5378397;26;20053;-69
2024/04/09 14:37:59;;;;;;;18.45;3.42;;;;;;;;;;5380981;26;20080;-65
2024/04/09 14:40:25;;;;;;;24.75;3.67;;;;;;;;;;5375624;26;20061;-67